createdAt,value
2024-02-13T00:01:41.938Z,9.20
2024-02-13T00:05:44.951Z,7.90
2024-02-13T00:09:47.193Z,10.10
2024-02-13T00:13:49.334Z,9.15
2024-02-13T00:17:52.719Z,7.75
2024-02-13T00:21:54.875Z,6.82
2024-02-13T00:25:56.966Z,11.40
2024-02-13T00:29:59.031Z,10.35
2024-02-13T00:34:00.783Z,11.40
2024-02-13T00:38:02.820Z,7.63
2024-02-13T00:42:06.532Z,6.28
2024-02-13T00:46:10.674Z,5.68
2024-02-13T00:50:15.869Z,7.22
2024-02-13T00:54:18.229Z,6.07
2024-02-13T00:58:20.606Z,5.93
2024-02-13T01:02:23.856Z,6.05
2024-02-13T01:06:25.985Z,6.70
2024-02-13T01:10:28.032Z,8.45
2024-02-13T01:14:30.070Z,7.45
2024-02-13T01:18:33.828Z,8.77
2024-02-13T01:22:36.544Z,7.35
2024-02-13T01:26:39.119Z,8.98
2024-02-13T01:30:41.353Z,10.93
2024-02-13T01:34:43.835Z,8.05
2024-02-13T01:38:46.092Z,10.63
2024-02-13T01:42:50.611Z,9.23
2024-02-13T01:46:53.722Z,10.98
2024-02-13T01:51:01.856Z,11.93
2024-02-13T01:55:04.268Z,9.43
2024-02-13T01:59:06.996Z,7.60
2024-02-13T02:03:15.980Z,9.43
2024-02-13T02:07:19.010Z,9.25
2024-02-13T02:11:21.277Z,7.22
2024-02-13T02:15:23.303Z,9.55
2024-02-13T02:19:25.466Z,10.85
2024-02-13T02:23:28.037Z,10.70
2024-02-13T02:27:30.289Z,12.68
2024-02-13T02:31:32.626Z,9.85
2024-02-13T02:35:35.026Z,8.88
2024-02-13T02:39:37.110Z,7.63
2024-02-13T02:43:39.360Z,10.27
2024-02-13T02:47:41.502Z,5.82
2024-02-13T02:51:44.921Z,4.13
2024-02-13T02:55:46.996Z,5.03
2024-02-13T02:59:49.271Z,3.65
2024-02-13T03:03:51.634Z,5.20
2024-02-13T03:07:53.842Z,4.25
2024-02-13T03:11:56.732Z,2.80
2024-02-13T03:15:59.016Z,6.22
2024-02-13T03:20:02.177Z,4.55
2024-02-13T03:24:06.356Z,3.72
2024-02-13T03:28:08.824Z,4.47
2024-02-13T03:32:11.047Z,7.03
2024-02-13T03:36:17.932Z,4.35
2024-02-13T03:40:20.195Z,4.07
2024-02-13T03:44:23.884Z,4.07
2024-02-13T03:48:26.281Z,3.80
2024-02-13T03:52:28.526Z,4.30
2024-02-13T03:56:30.719Z,3.60
2024-02-13T04:00:34.032Z,3.30
2024-02-13T04:04:36.586Z,2.75
2024-02-13T04:08:40.330Z,2.80
2024-02-13T04:12:42.447Z,2.30
2024-02-13T04:16:45.471Z,2.22
2024-02-13T04:20:47.698Z,2.15
2024-02-13T04:24:50.305Z,2.10
2024-02-13T04:28:52.391Z,2.42
2024-02-13T04:32:54.674Z,2.00
2024-02-13T04:36:56.787Z,1.90
2024-02-13T04:40:58.973Z,1.85
2024-02-13T04:45:01.825Z,2.08
2024-02-13T04:49:04.065Z,2.10
2024-02-13T04:53:06.358Z,1.80
2024-02-13T04:57:08.381Z,1.80
2024-02-13T05:01:13.330Z,1.73
2024-02-13T05:05:34.605Z,1.30
2024-02-13T05:09:36.968Z,1.60
2024-02-13T05:13:40.066Z,1.60
2024-02-13T05:17:42.733Z,1.80
2024-02-13T05:21:44.967Z,1.60
2024-02-13T05:25:46.886Z,1.60
2024-02-13T05:29:49.448Z,1.67
2024-02-13T05:33:53.402Z,1.85
2024-02-13T05:37:55.747Z,1.73
2024-02-13T05:41:58.869Z,1.80
2024-02-13T05:46:01.140Z,1.90
2024-02-13T05:50:05.112Z,2.13
2024-02-13T05:54:07.583Z,2.50
2024-02-13T05:58:10.096Z,5.45
2024-02-13T06:02:12.152Z,2.42
2024-02-13T06:06:15.943Z,2.00
2024-02-13T06:10:18.265Z,2.53
2024-02-13T06:14:20.497Z,2.30
2024-02-13T06:18:24.175Z,2.60
2024-02-13T06:22:26.499Z,2.10
2024-02-13T06:26:28.802Z,1.88
2024-02-13T06:30:33.182Z,2.58
2024-02-13T06:34:37.670Z,2.42
2024-02-13T06:38:39.914Z,2.58
2024-02-13T06:42:42.200Z,2.80
2024-02-13T06:46:44.354Z,3.33
2024-02-13T06:50:46.504Z,4.10
2024-02-13T06:54:50.788Z,3.20
2024-02-13T06:58:53.396Z,3.30
2024-02-13T07:02:56.183Z,3.10
2024-02-13T07:07:08.762Z,3.20
2024-02-13T07:11:20.846Z,3.25
2024-02-13T07:15:23.303Z,4.50
2024-02-13T07:19:26.784Z,3.15
2024-02-13T07:23:29.196Z,4.07
2024-02-13T07:27:31.704Z,2.95
2024-02-13T07:31:36.743Z,3.63
2024-02-13T07:35:39.096Z,3.10
2024-02-13T07:39:41.572Z,3.42
2024-02-13T07:43:43.853Z,3.30
2024-02-13T07:47:46.133Z,3.33
2024-02-13T07:51:49.900Z,3.30
2024-02-13T07:55:52.086Z,3.55
2024-02-13T07:59:57.304Z,3.60
2024-02-13T08:03:59.975Z,3.67
2024-02-13T08:08:03.772Z,4.05
2024-02-13T08:12:07.970Z,3.53
2024-02-13T08:16:12.476Z,3.75
2024-02-13T08:20:14.805Z,4.05
2024-02-13T08:24:19.349Z,4.72
2024-02-13T08:28:23.711Z,4.70
2024-02-13T08:32:28.157Z,4.82
2024-02-13T08:36:30.907Z,5.03
2024-02-13T08:40:32.981Z,5.10
2024-02-13T08:44:36.169Z,4.97
2024-02-13T08:48:38.783Z,5.00
2024-02-13T08:52:41.066Z,5.38
2024-02-13T08:56:44.025Z,5.35
2024-02-13T09:00:46.376Z,7.78
2024-02-13T09:04:51.417Z,5.72
2024-02-13T09:08:53.357Z,6.38
2024-02-13T09:12:55.692Z,6.47
2024-02-13T09:17:00.458Z,6.97
2024-02-13T09:21:02.949Z,6.45
2024-02-13T09:25:05.823Z,6.35
2024-02-13T09:29:07.925Z,6.15
2024-02-13T09:33:11.078Z,6.88
2024-02-13T09:37:14.263Z,6.82
2024-02-13T09:41:16.484Z,6.53
2024-02-13T09:45:18.995Z,6.50
2024-02-13T09:49:23.218Z,6.10
2024-02-13T09:53:30.264Z,5.65
2024-02-13T09:57:32.566Z,6.10
2024-02-13T10:01:35.470Z,5.40
2024-02-13T10:05:37.780Z,6.00
2024-02-13T10:09:39.912Z,6.13
2024-02-13T10:13:47.039Z,5.68
2024-02-13T10:17:52.475Z,6.03
2024-02-13T10:22:06.713Z,6.03
2024-02-13T10:26:09.595Z,5.80
2024-02-13T10:30:21.337Z,5.53
2024-02-13T10:38:29.118Z,5.35
2024-02-13T10:46:41.955Z,5.70
2024-02-13T10:50:44.851Z,5.43
2024-02-13T10:54:49.411Z,5.95
2024-02-13T10:58:51.682Z,5.78
2024-02-13T11:02:55.754Z,6.18
2024-02-13T11:06:58.219Z,5.53
2024-02-13T11:11:08.180Z,6.22
2024-02-13T11:15:15.260Z,6.82
2024-02-13T11:19:23.791Z,6.57
2024-02-13T11:23:29.919Z,6.50
2024-02-13T11:27:32.765Z,6.30
2024-02-13T11:31:35.306Z,6.05
2024-02-13T11:35:58.073Z,5.45
2024-02-13T11:40:00.536Z,5.07
2024-02-13T11:44:12.397Z,5.80
2024-02-13T11:48:18.353Z,5.13
2024-02-13T11:52:22.236Z,3.60
2024-02-13T11:56:24.463Z,2.35
2024-02-13T12:00:27.421Z,3.08
2024-02-13T12:04:30.923Z,3.65
2024-02-13T12:08:41.906Z,3.95
2024-02-13T12:12:44.236Z,4.35
2024-02-13T12:16:46.470Z,4.82
2024-02-13T12:20:51.121Z,5.13
2024-02-13T12:24:53.361Z,4.95
2024-02-13T12:28:58.809Z,5.80
2024-02-13T12:33:08.313Z,5.65
2024-02-13T12:37:16.398Z,5.80
2024-02-13T12:41:19.272Z,5.35
2024-02-13T12:45:22.506Z,5.50
2024-02-13T12:49:25.078Z,6.45
2024-02-13T12:53:28.113Z,5.75
2024-02-13T12:57:32.101Z,5.65
2024-02-13T13:01:39.177Z,6.20
2024-02-13T13:05:44.893Z,4.78
2024-02-13T13:09:48.044Z,4.70
2024-02-13T13:13:50.925Z,4.13
2024-02-13T13:17:55.381Z,4.40
2024-02-13T13:21:59.208Z,4.43
2024-02-13T13:26:02.405Z,3.85
2024-02-13T13:30:05.747Z,3.80
2024-02-13T13:34:10.547Z,5.15
2024-02-13T13:38:21.223Z,4.28
2024-02-13T13:42:23.404Z,4.60
2024-02-13T13:46:26.883Z,3.33
2024-02-13T13:50:29.080Z,3.85
2024-02-13T13:54:31.193Z,3.88
2024-02-13T13:58:33.605Z,3.95
2024-02-13T14:02:39.600Z,3.63
2024-02-13T14:06:41.852Z,4.22
2024-02-13T14:10:46.183Z,5.22
2024-02-13T14:14:48.518Z,5.10
2024-02-13T14:18:50.799Z,6.40
2024-02-13T14:22:55.316Z,6.10
2024-02-13T14:26:57.648Z,6.03
2024-02-13T14:30:59.937Z,6.03
2024-02-13T14:35:03.071Z,4.57
2024-02-13T14:39:05.390Z,3.80
2024-02-13T14:43:08.658Z,3.25
2024-02-13T14:47:11.088Z,3.72
2024-02-13T14:51:19.405Z,3.63
2024-02-13T14:55:21.928Z,3.60
2024-02-13T14:59:26.539Z,2.63
2024-02-13T15:03:29.035Z,2.47
2024-02-13T15:07:31.495Z,2.80
2024-02-13T15:11:34.535Z,2.78
2024-02-13T15:15:37.344Z,2.90
2024-02-13T15:19:41.543Z,2.40
2024-02-13T15:23:45.006Z,2.78
2024-02-13T15:27:47.196Z,2.38
2024-02-13T15:31:49.686Z,2.33
2024-02-13T15:36:06.095Z,2.22
2024-02-13T15:40:27.962Z,2.00
2024-02-13T15:44:48.769Z,2.45
2024-02-13T15:48:53.199Z,2.17
2024-02-13T15:52:56.472Z,2.33
2024-02-13T15:56:59.189Z,2.67
2024-02-13T16:01:02.776Z,3.22
2024-02-13T16:05:05.466Z,2.83
2024-02-13T16:09:07.651Z,1.80
2024-02-13T16:13:11.480Z,1.98
2024-02-13T16:17:13.585Z,1.90
2024-02-13T16:21:15.819Z,1.90
2024-02-13T16:25:19.801Z,2.10
2024-02-13T16:29:24.528Z,1.83
2024-02-13T16:33:26.896Z,2.20
2024-02-13T16:37:32.311Z,2.22
2024-02-13T16:41:34.476Z,1.90
2024-02-13T16:45:36.995Z,1.95
2024-02-13T16:49:39.222Z,2.17
2024-02-13T16:53:42.388Z,2.45
2024-02-13T16:57:46.199Z,2.20
2024-02-13T17:01:48.258Z,2.50
2024-02-13T17:05:51.625Z,2.70
2024-02-13T17:09:53.743Z,2.88
2024-02-13T17:13:55.907Z,2.50
2024-02-13T17:17:58.669Z,3.50
2024-02-13T17:22:00.850Z,3.55
2024-02-13T17:26:03.157Z,3.67
2024-02-13T17:30:08.842Z,3.92
2024-02-13T17:34:11.225Z,3.40
2024-02-13T17:38:13.839Z,2.78
2024-02-13T17:42:16.825Z,2.63
2024-02-13T17:46:18.971Z,3.15
2024-02-13T17:50:21.550Z,3.42
2024-02-13T17:54:29.211Z,3.25
2024-02-13T17:58:35.312Z,3.00
2024-02-13T18:02:40.654Z,3.55
2024-02-13T18:06:43.723Z,4.55
2024-02-13T18:10:45.872Z,6.88
2024-02-13T18:14:48.141Z,7.85
2024-02-13T18:18:50.963Z,6.97
2024-02-13T18:22:55.250Z,6.00
2024-02-13T18:26:58.036Z,4.80
2024-02-13T18:31:00.312Z,4.75
2024-02-13T18:35:02.599Z,4.93
2024-02-13T18:39:04.767Z,4.68
2024-02-13T18:43:06.909Z,3.75
2024-02-13T18:47:11.272Z,4.28
2024-02-13T18:51:15.731Z,4.25
2024-02-13T18:55:18.631Z,4.13
2024-02-13T18:59:21.172Z,5.35
2024-02-13T19:03:23.622Z,6.05
2024-02-13T19:07:25.739Z,5.15
2024-02-13T19:11:28.234Z,3.83
2024-02-13T19:15:30.421Z,5.50
2024-02-13T19:19:33.604Z,10.25
2024-02-13T19:23:35.744Z,4.63
2024-02-13T19:27:38.558Z,16.52
2024-02-13T19:31:42.411Z,5.32
2024-02-13T19:35:46.195Z,5.45
2024-02-13T19:39:48.768Z,4.75
2024-02-13T19:43:51.780Z,3.78
2024-02-13T19:47:54.135Z,3.90
2024-02-13T19:51:57.143Z,3.22
2024-02-13T19:55:59.509Z,3.05
2024-02-13T20:00:04.145Z,3.10
2024-02-13T20:04:07.384Z,3.20
2024-02-13T20:08:10.848Z,2.88
2024-02-13T20:12:13.036Z,2.92
2024-02-13T20:16:15.133Z,3.38
2024-02-13T20:20:17.989Z,3.63
2024-02-13T20:24:20.187Z,3.50
2024-02-13T20:28:22.296Z,3.67
2024-02-13T20:32:25.680Z,3.90
2024-02-13T20:36:27.860Z,4.10
2024-02-13T20:40:30.617Z,3.50
2024-02-13T20:44:32.814Z,5.20
2024-02-13T20:48:35.136Z,3.90
2024-02-13T20:52:38.146Z,4.07
2024-02-13T20:56:40.771Z,4.43
2024-02-13T21:00:44.821Z,6.18
2024-02-13T21:04:48.722Z,8.95
2024-02-13T21:08:52.572Z,4.47
2024-02-13T21:12:58.178Z,6.43
2024-02-13T21:17:00.278Z,4.72
2024-02-13T21:21:21.448Z,5.68
2024-02-13T21:25:24.670Z,5.60
2024-02-13T21:29:27.692Z,5.10
2024-02-13T21:33:30.061Z,5.15
2024-02-13T21:37:33.594Z,6.38
2024-02-13T21:41:36.608Z,6.40
2024-02-13T21:45:38.944Z,6.40
2024-02-13T21:49:41.213Z,6.28
2024-02-13T21:53:48.581Z,5.70
2024-02-13T21:57:50.740Z,6.03
2024-02-13T22:01:52.873Z,5.90
2024-02-13T22:05:55.278Z,6.60
2024-02-13T22:09:57.733Z,5.97
2024-02-13T22:14:01.905Z,5.53
2024-02-13T22:18:04.192Z,6.30
2024-02-13T22:22:06.456Z,5.72
2024-02-13T22:26:08.569Z,5.90
2024-02-13T22:30:13.741Z,5.75
2024-02-13T22:34:16.191Z,6.20
2024-02-13T22:38:18.469Z,6.20
2024-02-13T22:42:20.584Z,5.72
2024-02-13T22:46:26.094Z,4.97
2024-02-13T22:50:29.703Z,5.78
2024-02-13T22:54:32.621Z,5.85
2024-02-13T22:58:34.739Z,6.13
2024-02-13T23:02:37.235Z,7.82
2024-02-13T23:06:43.009Z,7.80
2024-02-13T23:10:45.220Z,7.60
2024-02-13T23:14:47.379Z,6.47
2024-02-13T23:18:50.316Z,6.22
2024-02-13T23:22:52.669Z,5.82
2024-02-13T23:26:54.871Z,6.78
2024-02-13T23:30:56.967Z,9.02
2024-02-13T23:34:59.104Z,6.25
2024-02-13T23:39:01.935Z,6.20
2024-02-13T23:43:06.916Z,5.95
2024-02-13T23:47:09.144Z,5.65
2024-02-13T23:51:11.457Z,5.65
2024-02-13T23:55:14.627Z,5.63
2024-02-13T23:59:16.704Z,5.13
